Battle, United Kingdom
Current Conditions -  °F | °C
As of 6:50 PM on Friday 21 Nov 2014 (Local Time) from EGMD Reporting Station
Broken Clouds Broken Clouds  
Wind Chill: 52°   Ceiling: 1300
Heat Index: 52°   Visibility: 4mi
Dew Point: 48°   Wind: 9mph
Humidity: 88%   Direction: 150°SSE
Pressure: 30"   Gusts: NA
Location:  50.92°N, 0.48°E
Report Text: EGMD 211850Z 15008KT 6000 BKN013 11/09 Q1016
Loading
Personal Weather Stations






























Interactive Weather Map New forecast layout! Learn more

10-Day Weather Forecast

Advertisements
Track Severe Weather on mobile